sensor_id;sensor_type;location;lat;lon;timestamp;P1;durP1;ratioP1;P2;durP2;ratioP2
69912;SDS011;57198;52.082;5.108;2024-03-22T00:01:48;36.00;;;22.70;;
69912;SDS011;57198;52.082;5.108;2024-03-22T00:04:15;38.42;;;22.13;;
69912;SDS011;57198;52.082;5.108;2024-03-22T00:06:42;37.00;;;19.92;;
69912;SDS011;57198;52.082;5.108;2024-03-22T00:09:09;36.20;;;20.38;;
69912;SDS011;57198;52.082;5.108;2024-03-22T00:11:35;38.60;;;23.35;;
69912;SDS011;57198;52.082;5.108;2024-03-22T00:14:02;37.60;;;21.97;;
69912;SDS011;57198;52.082;5.108;2024-03-22T00:16:29;39.22;;;21.48;;
69912;SDS011;57198;52.082;5.108;2024-03-22T00:18:55;36.72;;;19.83;;
69912;SDS011;57198;52.082;5.108;2024-03-22T00:21:22;35.90;;;22.75;;
69912;SDS011;57198;52.082;5.108;2024-03-22T00:23:48;35.17;;;20.10;;
69912;SDS011;57198;52.082;5.108;2024-03-22T00:26:15;33.43;;;20.63;;
69912;SDS011;57198;52.082;5.108;2024-03-22T00:28:41;40.28;;;23.92;;
69912;SDS011;57198;52.082;5.108;2024-03-22T00:31:08;39.03;;;22.60;;
69912;SDS011;57198;52.082;5.108;2024-03-22T00:33:34;40.25;;;23.17;;
69912;SDS011;57198;52.082;5.108;2024-03-22T00:36:01;44.08;;;22.25;;
69912;SDS011;57198;52.082;5.108;2024-03-22T00:38:28;45.40;;;23.60;;
69912;SDS011;57198;52.082;5.108;2024-03-22T00:40:54;38.67;;;22.50;;
69912;SDS011;57198;52.082;5.108;2024-03-22T00:43:20;38.10;;;21.90;;
69912;SDS011;57198;52.082;5.108;2024-03-22T00:45:47;36.60;;;19.77;;
69912;SDS011;57198;52.082;5.108;2024-03-22T00:48:13;39.60;;;23.88;;
69912;SDS011;57198;52.082;5.108;2024-03-22T00:50:40;40.53;;;21.43;;
69912;SDS011;57198;52.082;5.108;2024-03-22T00:53:06;41.67;;;23.65;;
69912;SDS011;57198;52.082;5.108;2024-03-22T00:55:33;44.72;;;22.98;;
69912;SDS011;57198;52.082;5.108;2024-03-22T00:58:00;37.22;;;21.38;;
69912;SDS011;57198;52.082;5.108;2024-03-22T01:00:26;38.97;;;22.17;;
69912;SDS011;57198;52.082;5.108;2024-03-22T01:02:53;38.33;;;21.67;;
69912;SDS011;57198;52.082;5.108;2024-03-22T01:05:19;37.42;;;22.52;;
69912;SDS011;57198;52.082;5.108;2024-03-22T01:07:45;36.30;;;20.92;;
69912;SDS011;57198;52.082;5.108;2024-03-22T01:10:12;37.05;;;20.38;;
69912;SDS011;57198;52.082;5.108;2024-03-22T01:12:38;39.10;;;22.45;;
69912;SDS011;57198;52.082;5.108;2024-03-22T01:15:05;37.53;;;21.47;;
69912;SDS011;57198;52.082;5.108;2024-03-22T01:17:32;39.72;;;22.25;;
69912;SDS011;57198;52.082;5.108;2024-03-22T01:19:59;41.17;;;21.50;;
69912;SDS011;57198;52.082;5.108;2024-03-22T01:22:25;37.95;;;21.27;;
69912;SDS011;57198;52.082;5.108;2024-03-22T01:24:52;35.42;;;20.80;;
69912;SDS011;57198;52.082;5.108;2024-03-22T01:27:18;42.43;;;21.87;;
69912;SDS011;57198;52.082;5.108;2024-03-22T01:29:46;35.03;;;21.35;;
69912;SDS011;57198;52.082;5.108;2024-03-22T01:32:12;34.55;;;20.80;;
69912;SDS011;57198;52.082;5.108;2024-03-22T01:34:39;35.30;;;21.63;;
69912;SDS011;57198;52.082;5.108;2024-03-22T01:37:05;42.45;;;21.88;;
69912;SDS011;57198;52.082;5.108;2024-03-22T01:39:32;38.30;;;21.23;;
69912;SDS011;57198;52.082;5.108;2024-03-22T01:41:58;39.42;;;20.90;;
69912;SDS011;57198;52.082;5.108;2024-03-22T01:44:28;39.75;;;19.98;;
69912;SDS011;57198;52.082;5.108;2024-03-22T01:46:55;37.92;;;21.63;;
69912;SDS011;57198;52.082;5.108;2024-03-22T01:49:21;32.85;;;19.60;;
69912;SDS011;57198;52.082;5.108;2024-03-22T01:51:48;36.73;;;20.50;;
69912;SDS011;57198;52.082;5.108;2024-03-22T01:54:15;49.33;;;23.95;;
69912;SDS011;57198;52.082;5.108;2024-03-22T01:56:42;35.30;;;20.13;;
69912;SDS011;57198;52.082;5.108;2024-03-22T01:59:08;37.83;;;21.00;;
69912;SDS011;57198;52.082;5.108;2024-03-22T02:01:35;46.45;;;25.13;;
69912;SDS011;57198;52.082;5.108;2024-03-22T02:04:02;43.17;;;22.67;;
69912;SDS011;57198;52.082;5.108;2024-03-22T02:06:28;44.70;;;23.60;;
69912;SDS011;57198;52.082;5.108;2024-03-22T02:08:55;52.28;;;29.00;;
69912;SDS011;57198;52.082;5.108;2024-03-22T02:11:22;49.78;;;27.63;;
69912;SDS011;57198;52.082;5.108;2024-03-22T02:13:48;54.25;;;29.52;;
69912;SDS011;57198;52.082;5.108;2024-03-22T02:16:15;51.03;;;28.50;;
69912;SDS011;57198;52.082;5.108;2024-03-22T02:18:41;55.75;;;29.38;;
69912;SDS011;57198;52.082;5.108;2024-03-22T02:21:07;60.70;;;30.23;;
69912;SDS011;57198;52.082;5.108;2024-03-22T02:23:34;60.00;;;30.27;;
69912;SDS011;57198;52.082;5.108;2024-03-22T02:26:01;54.67;;;28.58;;
69912;SDS011;57198;52.082;5.108;2024-03-22T02:28:28;56.93;;;28.97;;
69912;SDS011;57198;52.082;5.108;2024-03-22T02:30:55;56.40;;;28.77;;
69912;SDS011;57198;52.082;5.108;2024-03-22T02:33:22;58.20;;;29.92;;
69912;SDS011;57198;52.082;5.108;2024-03-22T02:35:49;55.20;;;27.65;;
69912;SDS011;57198;52.082;5.108;2024-03-22T02:38:15;54.55;;;27.33;;
69912;SDS011;57198;52.082;5.108;2024-03-22T02:40:45;46.25;;;22.15;;
69912;SDS011;57198;52.082;5.108;2024-03-22T02:43:12;41.08;;;22.20;;
69912;SDS011;57198;52.082;5.108;2024-03-22T02:45:39;41.33;;;21.75;;
69912;SDS011;57198;52.082;5.108;2024-03-22T02:48:05;42.83;;;21.80;;
69912;SDS011;57198;52.082;5.108;2024-03-22T02:50:36;42.88;;;20.77;;
69912;SDS011;57198;52.082;5.108;2024-03-22T02:53:02;39.03;;;21.55;;
69912;SDS011;57198;52.082;5.108;2024-03-22T02:55:29;44.15;;;22.58;;
69912;SDS011;57198;52.082;5.108;2024-03-22T02:57:56;36.22;;;17.70;;
69912;SDS011;57198;52.082;5.108;2024-03-22T03:00:23;37.58;;;19.65;;
69912;SDS011;57198;52.082;5.108;2024-03-22T03:02:50;39.88;;;21.13;;
69912;SDS011;57198;52.082;5.108;2024-03-22T03:05:16;36.38;;;19.17;;
69912;SDS011;57198;52.082;5.108;2024-03-22T03:07:44;39.85;;;19.30;;
69912;SDS011;57198;52.082;5.108;2024-03-22T03:10:12;47.08;;;22.45;;
69912;SDS011;57198;52.082;5.108;2024-03-22T03:12:38;40.50;;;21.73;;
69912;SDS011;57198;52.082;5.108;2024-03-22T03:15:04;40.10;;;22.05;;
69912;SDS011;57198;52.082;5.108;2024-03-22T03:17:31;33.30;;;16.42;;
69912;SDS011;57198;52.082;5.108;2024-03-22T03:19:57;37.75;;;19.73;;
69912;SDS011;57198;52.082;5.108;2024-03-22T03:22:24;34.33;;;18.00;;
69912;SDS011;57198;52.082;5.108;2024-03-22T03:24:50;34.60;;;18.98;;
69912;SDS011;57198;52.082;5.108;2024-03-22T03:27:17;37.17;;;19.58;;
69912;SDS011;57198;52.082;5.108;2024-03-22T03:29:43;35.38;;;16.85;;
69912;SDS011;57198;52.082;5.108;2024-03-22T03:32:09;35.15;;;18.70;;
69912;SDS011;57198;52.082;5.108;2024-03-22T03:34:36;38.60;;;18.17;;
69912;SDS011;57198;52.082;5.108;2024-03-22T03:37:02;34.78;;;18.58;;
69912;SDS011;57198;52.082;5.108;2024-03-22T03:39:29;34.15;;;18.35;;
69912;SDS011;57198;52.082;5.108;2024-03-22T03:41:55;32.65;;;16.08;;
69912;SDS011;57198;52.082;5.108;2024-03-22T03:44:22;36.78;;;17.90;;
69912;SDS011;57198;52.082;5.108;2024-03-22T03:46:48;39.05;;;20.17;;
69912;SDS011;57198;52.082;5.108;2024-03-22T03:49:14;36.83;;;19.75;;
69912;SDS011;57198;52.082;5.108;2024-03-22T03:51:41;33.13;;;17.10;;
69912;SDS011;57198;52.082;5.108;2024-03-22T03:54:07;38.10;;;19.88;;
69912;SDS011;57198;52.082;5.108;2024-03-22T03:56:33;40.65;;;21.02;;
69912;SDS011;57198;52.082;5.108;2024-03-22T03:59:00;39.72;;;20.90;;
69912;SDS011;57198;52.082;5.108;2024-03-22T04:01:26;41.95;;;20.77;;
69912;SDS011;57198;52.082;5.108;2024-03-22T04:03:52;40.72;;;19.75;;
69912;SDS011;57198;52.082;5.108;2024-03-22T04:06:19;39.43;;;19.60;;
69912;SDS011;57198;52.082;5.108;2024-03-22T04:08:45;42.95;;;20.42;;
69912;SDS011;57198;52.082;5.108;2024-03-22T04:11:11;36.67;;;18.80;;
69912;SDS011;57198;52.082;5.108;2024-03-22T04:13:38;40.38;;;19.98;;
69912;SDS011;57198;52.082;5.108;2024-03-22T04:16:04;34.28;;;18.23;;
69912;SDS011;57198;52.082;5.108;2024-03-22T04:18:31;36.63;;;17.53;;
69912;SDS011;57198;52.082;5.108;2024-03-22T04:20:58;36.78;;;20.75;;
69912;SDS011;57198;52.082;5.108;2024-03-22T04:23:25;40.40;;;20.88;;
69912;SDS011;57198;52.082;5.108;2024-03-22T04:25:55;41.67;;;19.63;;
69912;SDS011;57198;52.082;5.108;2024-03-22T04:28:21;38.58;;;21.25;;
69912;SDS011;57198;52.082;5.108;2024-03-22T04:30:55;38.07;;;20.27;;
69912;SDS011;57198;52.082;5.108;2024-03-22T04:33:21;36.00;;;20.65;;
69912;SDS011;57198;52.082;5.108;2024-03-22T04:35:48;34.75;;;19.17;;
69912;SDS011;57198;52.082;5.108;2024-03-22T04:38:14;34.75;;;19.83;;
69912;SDS011;57198;52.082;5.108;2024-03-22T04:40:40;36.25;;;18.00;;
69912;SDS011;57198;52.082;5.108;2024-03-22T04:43:07;41.40;;;20.13;;
69912;SDS011;57198;52.082;5.108;2024-03-22T04:45:34;36.50;;;19.40;;
69912;SDS011;57198;52.082;5.108;2024-03-22T04:48:01;43.40;;;21.40;;
69912;SDS011;57198;52.082;5.108;2024-03-22T04:50:27;36.72;;;21.02;;
69912;SDS011;57198;52.082;5.108;2024-03-22T04:52:54;39.22;;;22.10;;
69912;SDS011;57198;52.082;5.108;2024-03-22T04:55:20;41.70;;;21.98;;
69912;SDS011;57198;52.082;5.108;2024-03-22T04:57:47;39.75;;;21.95;;
69912;SDS011;57198;52.082;5.108;2024-03-22T05:00:14;41.70;;;21.33;;
69912;SDS011;57198;52.082;5.108;2024-03-22T05:02:41;44.47;;;21.67;;
69912;SDS011;57198;52.082;5.108;2024-03-22T05:05:07;48.35;;;24.60;;
69912;SDS011;57198;52.082;5.108;2024-03-22T05:07:34;43.30;;;21.00;;
69912;SDS011;57198;52.082;5.108;2024-03-22T05:10:01;42.20;;;22.90;;
69912;SDS011;57198;52.082;5.108;2024-03-22T05:12:28;51.33;;;25.23;;
69912;SDS011;57198;52.082;5.108;2024-03-22T05:14:55;44.03;;;24.58;;
69912;SDS011;57198;52.082;5.108;2024-03-22T05:17:21;45.88;;;23.83;;
69912;SDS011;57198;52.082;5.108;2024-03-22T05:19:47;42.35;;;22.95;;
69912;SDS011;57198;52.082;5.108;2024-03-22T05:22:14;49.58;;;25.48;;
69912;SDS011;57198;52.082;5.108;2024-03-22T05:24:40;43.92;;;24.73;;
69912;SDS011;57198;52.082;5.108;2024-03-22T05:27:07;44.78;;;24.60;;
69912;SDS011;57198;52.082;5.108;2024-03-22T05:29:33;44.53;;;22.92;;
69912;SDS011;57198;52.082;5.108;2024-03-22T05:32:00;41.38;;;22.30;;
69912;SDS011;57198;52.082;5.108;2024-03-22T05:34:29;44.83;;;24.08;;
69912;SDS011;57198;52.082;5.108;2024-03-22T05:36:55;39.90;;;22.40;;
69912;SDS011;57198;52.082;5.108;2024-03-22T05:39:22;41.80;;;23.40;;
69912;SDS011;57198;52.082;5.108;2024-03-22T05:41:48;42.00;;;24.30;;
69912;SDS011;57198;52.082;5.108;2024-03-22T05:44:14;44.47;;;22.08;;
69912;SDS011;57198;52.082;5.108;2024-03-22T05:46:41;42.08;;;23.70;;
69912;SDS011;57198;52.082;5.108;2024-03-22T05:49:07;42.60;;;23.92;;
69912;SDS011;57198;52.082;5.108;2024-03-22T05:51:33;40.05;;;23.15;;
69912;SDS011;57198;52.082;5.108;2024-03-22T05:54:00;42.60;;;23.73;;
69912;SDS011;57198;52.082;5.108;2024-03-22T05:56:26;89.53;;;23.98;;
69912;SDS011;57198;52.082;5.108;2024-03-22T05:58:52;46.50;;;24.40;;
69912;SDS011;57198;52.082;5.108;2024-03-22T06:01:19;46.15;;;23.10;;
69912;SDS011;57198;52.082;5.108;2024-03-22T06:03:45;49.70;;;26.02;;
69912;SDS011;57198;52.082;5.108;2024-03-22T06:06:12;46.83;;;24.75;;
69912;SDS011;57198;52.082;5.108;2024-03-22T06:08:38;44.28;;;22.23;;
69912;SDS011;57198;52.082;5.108;2024-03-22T06:11:09;41.08;;;22.05;;
69912;SDS011;57198;52.082;5.108;2024-03-22T06:13:35;43.28;;;23.10;;
69912;SDS011;57198;52.082;5.108;2024-03-22T06:16:02;41.90;;;22.75;;
69912;SDS011;57198;52.082;5.108;2024-03-22T06:18:29;35.35;;;20.23;;
69912;SDS011;57198;52.082;5.108;2024-03-22T06:20:55;38.72;;;22.10;;
69912;SDS011;57198;52.082;5.108;2024-03-22T06:23:22;39.08;;;22.05;;
69912;SDS011;57198;52.082;5.108;2024-03-22T06:25:54;30.73;;;18.95;;
69912;SDS011;57198;52.082;5.108;2024-03-22T06:28:21;34.10;;;20.70;;
69912;SDS011;57198;52.082;5.108;2024-03-22T06:30:47;34.00;;;19.73;;
69912;SDS011;57198;52.082;5.108;2024-03-22T06:33:14;35.50;;;20.92;;
69912;SDS011;57198;52.082;5.108;2024-03-22T06:35:43;31.98;;;17.55;;
69912;SDS011;57198;52.082;5.108;2024-03-22T06:38:09;33.08;;;19.20;;
69912;SDS011;57198;52.082;5.108;2024-03-22T06:40:36;29.23;;;17.42;;
69912;SDS011;57198;52.082;5.108;2024-03-22T06:43:02;32.53;;;17.80;;
69912;SDS011;57198;52.082;5.108;2024-03-22T06:45:29;31.60;;;18.17;;
69912;SDS011;57198;52.082;5.108;2024-03-22T06:47:55;23.35;;;13.48;;
69912;SDS011;57198;52.082;5.108;2024-03-22T06:50:21;37.70;;;18.60;;
69912;SDS011;57198;52.082;5.108;2024-03-22T06:52:53;36.05;;;20.02;;
69912;SDS011;57198;52.082;5.108;2024-03-22T06:55:20;40.08;;;21.27;;
69912;SDS011;57198;52.082;5.108;2024-03-22T06:57:47;33.00;;;19.20;;
69912;SDS011;57198;52.082;5.108;2024-03-22T07:00:14;33.38;;;18.85;;
69912;SDS011;57198;52.082;5.108;2024-03-22T07:02:40;29.92;;;16.20;;
69912;SDS011;57198;52.082;5.108;2024-03-22T07:05:07;35.85;;;19.98;;
69912;SDS011;57198;52.082;5.108;2024-03-22T07:07:34;35.03;;;19.63;;
69912;SDS011;57198;52.082;5.108;2024-03-22T07:10:01;30.35;;;16.42;;
69912;SDS011;57198;52.082;5.108;2024-03-22T07:12:27;30.23;;;16.15;;
69912;SDS011;57198;52.082;5.108;2024-03-22T07:14:54;30.55;;;15.70;;
69912;SDS011;57198;52.082;5.108;2024-03-22T07:17:21;32.88;;;17.30;;
69912;SDS011;57198;52.082;5.108;2024-03-22T07:19:53;29.35;;;17.23;;
69912;SDS011;57198;52.082;5.108;2024-03-22T07:22:19;30.35;;;16.10;;
69912;SDS011;57198;52.082;5.108;2024-03-22T07:24:46;32.35;;;17.48;;
69912;SDS011;57198;52.082;5.108;2024-03-22T07:27:13;31.80;;;18.48;;
69912;SDS011;57198;52.082;5.108;2024-03-22T07:29:43;35.75;;;19.25;;
69912;SDS011;57198;52.082;5.108;2024-03-22T07:32:10;37.67;;;18.98;;
69912;SDS011;57198;52.082;5.108;2024-03-22T07:34:36;35.75;;;18.25;;
69912;SDS011;57198;52.082;5.108;2024-03-22T07:37:02;30.08;;;17.27;;
69912;SDS011;57198;52.082;5.108;2024-03-22T07:39:29;35.08;;;18.40;;
69912;SDS011;57198;52.082;5.108;2024-03-22T07:41:56;34.75;;;18.20;;
69912;SDS011;57198;52.082;5.108;2024-03-22T07:44:22;42.75;;;19.48;;
69912;SDS011;57198;52.082;5.108;2024-03-22T07:46:54;34.00;;;16.57;;
69912;SDS011;57198;52.082;5.108;2024-03-22T07:49:20;40.03;;;18.77;;
69912;SDS011;57198;52.082;5.108;2024-03-22T07:51:47;32.47;;;18.08;;
69912;SDS011;57198;52.082;5.108;2024-03-22T07:54:13;33.10;;;18.20;;
69912;SDS011;57198;52.082;5.108;2024-03-22T07:56:39;33.95;;;18.02;;
69912;SDS011;57198;52.082;5.108;2024-03-22T07:59:06;30.00;;;16.13;;
69912;SDS011;57198;52.082;5.108;2024-03-22T08:01:32;30.42;;;15.32;;
69912;SDS011;57198;52.082;5.108;2024-03-22T08:03:58;27.52;;;14.52;;
69912;SDS011;57198;52.082;5.108;2024-03-22T08:06:25;30.67;;;14.20;;
69912;SDS011;57198;52.082;5.108;2024-03-22T08:08:51;25.50;;;12.30;;
69912;SDS011;57198;52.082;5.108;2024-03-22T08:11:18;20.85;;;11.73;;
69912;SDS011;57198;52.082;5.108;2024-03-22T08:13:44;27.52;;;12.30;;
69912;SDS011;57198;52.082;5.108;2024-03-22T08:16:12;21.45;;;10.52;;
69912;SDS011;57198;52.082;5.108;2024-03-22T08:18:38;24.00;;;11.38;;
69912;SDS011;57198;52.082;5.108;2024-03-22T08:21:04;23.38;;;9.48;;
69912;SDS011;57198;52.082;5.108;2024-03-22T08:23:31;20.92;;;10.05;;
69912;SDS011;57198;52.082;5.108;2024-03-22T08:25:58;24.02;;;11.43;;
69912;SDS011;57198;52.082;5.108;2024-03-22T08:28:24;25.55;;;10.95;;
69912;SDS011;57198;52.082;5.108;2024-03-22T08:30:51;20.00;;;9.82;;
69912;SDS011;57198;52.082;5.108;2024-03-22T08:33:17;18.92;;;10.57;;
69912;SDS011;57198;52.082;5.108;2024-03-22T08:35:44;24.40;;;11.13;;
69912;SDS011;57198;52.082;5.108;2024-03-22T08:38:11;19.52;;;11.13;;
69912;SDS011;57198;52.082;5.108;2024-03-22T08:40:40;20.42;;;9.40;;
69912;SDS011;57198;52.082;5.108;2024-03-22T08:43:06;23.60;;;10.00;;
69912;SDS011;57198;52.082;5.108;2024-03-22T08:45:33;21.90;;;10.20;;
69912;SDS011;57198;52.082;5.108;2024-03-22T08:47:59;24.85;;;9.65;;
69912;SDS011;57198;52.082;5.108;2024-03-22T08:50:26;24.58;;;10.63;;
69912;SDS011;57198;52.082;5.108;2024-03-22T08:52:52;22.77;;;9.23;;
69912;SDS011;57198;52.082;5.108;2024-03-22T08:55:18;21.27;;;9.20;;
69912;SDS011;57198;52.082;5.108;2024-03-22T08:57:45;22.42;;;9.65;;
69912;SDS011;57198;52.082;5.108;2024-03-22T09:00:12;24.65;;;10.40;;
69912;SDS011;57198;52.082;5.108;2024-03-22T09:02:38;22.17;;;11.15;;
69912;SDS011;57198;52.082;5.108;2024-03-22T09:05:05;23.90;;;10.18;;
69912;SDS011;57198;52.082;5.108;2024-03-22T09:07:31;25.33;;;11.38;;
69912;SDS011;57198;52.082;5.108;2024-03-22T09:09:58;28.17;;;10.98;;
69912;SDS011;57198;52.082;5.108;2024-03-22T09:12:24;24.65;;;11.15;;
69912;SDS011;57198;52.082;5.108;2024-03-22T09:14:50;21.08;;;11.23;;
69912;SDS011;57198;52.082;5.108;2024-03-22T09:17:17;25.27;;;11.15;;
69912;SDS011;57198;52.082;5.108;2024-03-22T09:19:43;21.85;;;11.55;;
69912;SDS011;57198;52.082;5.108;2024-03-22T09:22:10;23.73;;;10.60;;
69912;SDS011;57198;52.082;5.108;2024-03-22T09:24:36;20.25;;;10.27;;
69912;SDS011;57198;52.082;5.108;2024-03-22T09:27:03;20.08;;;9.68;;
69912;SDS011;57198;52.082;5.108;2024-03-22T09:29:34;16.80;;;9.43;;
69912;SDS011;57198;52.082;5.108;2024-03-22T09:32:01;18.38;;;8.55;;
69912;SDS011;57198;52.082;5.108;2024-03-22T09:34:27;20.60;;;8.90;;
69912;SDS011;57198;52.082;5.108;2024-03-22T09:36:55;21.25;;;9.50;;
69912;SDS011;57198;52.082;5.108;2024-03-22T09:39:24;16.33;;;9.02;;
69912;SDS011;57198;52.082;5.108;2024-03-22T09:41:52;15.60;;;8.52;;
69912;SDS011;57198;52.082;5.108;2024-03-22T09:44:21;16.23;;;8.43;;
69912;SDS011;57198;52.082;5.108;2024-03-22T09:46:48;15.73;;;8.48;;
69912;SDS011;57198;52.082;5.108;2024-03-22T09:49:16;15.60;;;7.65;;
69912;SDS011;57198;52.082;5.108;2024-03-22T09:51:43;19.65;;;9.52;;
69912;SDS011;57198;52.082;5.108;2024-03-22T09:54:10;14.90;;;8.88;;
69912;SDS011;57198;52.082;5.108;2024-03-22T09:56:39;16.25;;;9.63;;
69912;SDS011;57198;52.082;5.108;2024-03-22T09:59:06;13.07;;;8.88;;
69912;SDS011;57198;52.082;5.108;2024-03-22T10:01:33;18.65;;;10.35;;
69912;SDS011;57198;52.082;5.108;2024-03-22T10:04:00;16.77;;;10.07;;
69912;SDS011;57198;52.082;5.108;2024-03-22T10:06:27;19.08;;;10.63;;
69912;SDS011;57198;52.082;5.108;2024-03-22T10:08:57;20.98;;;10.75;;
69912;SDS011;57198;52.082;5.108;2024-03-22T10:11:26;14.45;;;10.00;;
69912;SDS011;57198;52.082;5.108;2024-03-22T10:13:52;17.58;;;10.88;;
69912;SDS011;57198;52.082;5.108;2024-03-22T10:16:23;19.48;;;9.70;;
69912;SDS011;57198;52.082;5.108;2024-03-22T10:18:50;22.75;;;11.55;;
69912;SDS011;57198;52.082;5.108;2024-03-22T10:21:17;22.33;;;11.18;;
69912;SDS011;57198;52.082;5.108;2024-03-22T10:23:44;20.00;;;12.10;;
69912;SDS011;57198;52.082;5.108;2024-03-22T10:26:12;21.33;;;12.52;;
69912;SDS011;57198;52.082;5.108;2024-03-22T10:28:45;21.85;;;12.85;;
69912;SDS011;57198;52.082;5.108;2024-03-22T10:31:12;21.05;;;13.10;;
69912;SDS011;57198;52.082;5.108;2024-03-22T10:33:38;20.48;;;12.50;;
69912;SDS011;57198;52.082;5.108;2024-03-22T10:36:06;22.90;;;12.68;;
69912;SDS011;57198;52.082;5.108;2024-03-22T10:38:33;20.60;;;11.70;;
69912;SDS011;57198;52.082;5.108;2024-03-22T10:41:00;22.52;;;13.13;;
69912;SDS011;57198;52.082;5.108;2024-03-22T10:43:28;17.88;;;13.45;;
69912;SDS011;57198;52.082;5.108;2024-03-22T10:45:55;17.00;;;10.55;;
69912;SDS011;57198;52.082;5.108;2024-03-22T10:48:22;19.90;;;10.60;;
69912;SDS011;57198;52.082;5.108;2024-03-22T10:50:51;13.60;;;9.23;;
69912;SDS011;57198;52.082;5.108;2024-03-22T10:53:21;18.30;;;11.20;;
69912;SDS011;57198;52.082;5.108;2024-03-22T10:55:52;13.65;;;9.70;;
69912;SDS011;57198;52.082;5.108;2024-03-22T10:58:24;17.90;;;9.77;;
69912;SDS011;57198;52.082;5.108;2024-03-22T11:00:54;15.57;;;9.32;;
69912;SDS011;57198;52.082;5.108;2024-03-22T11:03:24;14.52;;;8.93;;
69912;SDS011;57198;52.082;5.108;2024-03-22T11:05:54;16.38;;;8.05;;
69912;SDS011;57198;52.082;5.108;2024-03-22T11:08:24;12.77;;;7.40;;
69912;SDS011;57198;52.082;5.108;2024-03-22T11:10:51;16.00;;;9.63;;
69912;SDS011;57198;52.082;5.108;2024-03-22T11:13:20;13.80;;;8.65;;
69912;SDS011;57198;52.082;5.108;2024-03-22T11:15:47;13.52;;;8.90;;
69912;SDS011;57198;52.082;5.108;2024-03-22T11:18:14;12.40;;;8.60;;
69912;SDS011;57198;52.082;5.108;2024-03-22T11:20:41;16.95;;;8.93;;
69912;SDS011;57198;52.082;5.108;2024-03-22T11:23:08;15.32;;;9.40;;
69912;SDS011;57198;52.082;5.108;2024-03-22T11:25:35;15.20;;;9.23;;
69912;SDS011;57198;52.082;5.108;2024-03-22T11:28:01;12.63;;;6.70;;
69912;SDS011;57198;52.082;5.108;2024-03-22T11:30:31;13.48;;;7.43;;
69912;SDS011;57198;52.082;5.108;2024-03-22T11:33:02;8.35;;;6.60;;
69912;SDS011;57198;52.082;5.108;2024-03-22T11:35:28;8.95;;;5.97;;
69912;SDS011;57198;52.082;5.108;2024-03-22T11:37:55;10.70;;;6.60;;
69912;SDS011;57198;52.082;5.108;2024-03-22T11:40:27;9.07;;;5.78;;
69912;SDS011;57198;52.082;5.108;2024-03-22T11:42:56;11.25;;;6.03;;
69912;SDS011;57198;52.082;5.108;2024-03-22T11:45:24;7.50;;;6.28;;
69912;SDS011;57198;52.082;5.108;2024-03-22T11:47:52;7.85;;;5.63;;
69912;SDS011;57198;52.082;5.108;2024-03-22T11:50:18;9.65;;;5.68;;
69912;SDS011;57198;52.082;5.108;2024-03-22T11:52:45;6.83;;;5.90;;
69912;SDS011;57198;52.082;5.108;2024-03-22T11:55:13;6.80;;;5.72;;
69912;SDS011;57198;52.082;5.108;2024-03-22T11:57:39;6.25;;;5.18;;
69912;SDS011;57198;52.082;5.108;2024-03-22T12:00:06;9.05;;;6.32;;
69912;SDS011;57198;52.082;5.108;2024-03-22T12:02:40;7.82;;;6.00;;
69912;SDS011;57198;52.082;5.108;2024-03-22T12:05:10;9.45;;;7.38;;
69912;SDS011;57198;52.082;5.108;2024-03-22T12:07:36;8.60;;;6.75;;
69912;SDS011;57198;52.082;5.108;2024-03-22T12:10:03;8.02;;;5.70;;
69912;SDS011;57198;52.082;5.108;2024-03-22T12:12:30;8.63;;;6.68;;
69912;SDS011;57198;52.082;5.108;2024-03-22T12:14:56;11.65;;;6.15;;
69912;SDS011;57198;52.082;5.108;2024-03-22T12:17:23;10.60;;;6.32;;
69912;SDS011;57198;52.082;5.108;2024-03-22T12:19:49;10.40;;;7.10;;
69912;SDS011;57198;52.082;5.108;2024-03-22T12:22:17;13.30;;;7.78;;
69912;SDS011;57198;52.082;5.108;2024-03-22T12:24:43;11.48;;;7.70;;
69912;SDS011;57198;52.082;5.108;2024-03-22T12:27:11;17.00;;;9.00;;
69912;SDS011;57198;52.082;5.108;2024-03-22T12:29:37;10.68;;;7.15;;
69912;SDS011;57198;52.082;5.108;2024-03-22T12:32:04;12.23;;;8.40;;
69912;SDS011;57198;52.082;5.108;2024-03-22T12:34:30;14.10;;;8.68;;
69912;SDS011;57198;52.082;5.108;2024-03-22T12:36:58;16.73;;;9.10;;
69912;SDS011;57198;52.082;5.108;2024-03-22T12:39:24;15.40;;;9.50;;
69912;SDS011;57198;52.082;5.108;2024-03-22T12:41:50;16.35;;;9.10;;
69912;SDS011;57198;52.082;5.108;2024-03-22T12:44:17;15.57;;;9.63;;
69912;SDS011;57198;52.082;5.108;2024-03-22T12:46:43;12.73;;;9.10;;
69912;SDS011;57198;52.082;5.108;2024-03-22T12:49:10;15.23;;;9.10;;
69912;SDS011;57198;52.082;5.108;2024-03-22T12:51:37;15.15;;;8.50;;
69912;SDS011;57198;52.082;5.108;2024-03-22T12:54:04;12.40;;;8.25;;
69912;SDS011;57198;52.082;5.108;2024-03-22T12:56:30;14.35;;;7.40;;
69912;SDS011;57198;52.082;5.108;2024-03-22T12:58:57;14.20;;;7.43;;
69912;SDS011;57198;52.082;5.108;2024-03-22T13:01:23;15.75;;;7.90;;
69912;SDS011;57198;52.082;5.108;2024-03-22T13:03:49;14.50;;;7.00;;
69912;SDS011;57198;52.082;5.108;2024-03-22T13:06:17;14.30;;;6.40;;
69912;SDS011;57198;52.082;5.108;2024-03-22T13:08:43;15.30;;;7.32;;
69912;SDS011;57198;52.082;5.108;2024-03-22T13:11:09;16.48;;;7.55;;
69912;SDS011;57198;52.082;5.108;2024-03-22T13:13:36;11.52;;;6.88;;
69912;SDS011;57198;52.082;5.108;2024-03-22T13:16:03;16.70;;;7.70;;
69912;SDS011;57198;52.082;5.108;2024-03-22T13:18:29;11.13;;;7.45;;
69912;SDS011;57198;52.082;5.108;2024-03-22T13:20:56;15.52;;;7.00;;
69912;SDS011;57198;52.082;5.108;2024-03-22T13:23:22;15.27;;;6.60;;
69912;SDS011;57198;52.082;5.108;2024-03-22T13:25:49;10.60;;;6.38;;
69912;SDS011;57198;52.082;5.108;2024-03-22T13:28:15;12.63;;;6.53;;
69912;SDS011;57198;52.082;5.108;2024-03-22T13:30:47;13.03;;;5.53;;
69912;SDS011;57198;52.082;5.108;2024-03-22T13:33:14;10.35;;;5.95;;
69912;SDS011;57198;52.082;5.108;2024-03-22T13:35:41;8.23;;;6.10;;
69912;SDS011;57198;52.082;5.108;2024-03-22T13:38:07;11.27;;;6.07;;
69912;SDS011;57198;52.082;5.108;2024-03-22T13:40:38;8.90;;;5.80;;
69912;SDS011;57198;52.082;5.108;2024-03-22T13:43:09;15.73;;;6.73;;
69912;SDS011;57198;52.082;5.108;2024-03-22T13:45:41;12.32;;;6.18;;
69912;SDS011;57198;52.082;5.108;2024-03-22T13:48:10;12.30;;;6.90;;
69912;SDS011;57198;52.082;5.108;2024-03-22T13:50:40;13.57;;;7.18;;
69912;SDS011;57198;52.082;5.108;2024-03-22T13:53:06;16.42;;;9.00;;
69912;SDS011;57198;52.082;5.108;2024-03-22T13:55:33;16.70;;;8.15;;
69912;SDS011;57198;52.082;5.108;2024-03-22T13:58:00;21.33;;;8.38;;
69912;SDS011;57198;52.082;5.108;2024-03-22T14:00:27;16.70;;;7.20;;
69912;SDS011;57198;52.082;5.108;2024-03-22T14:02:53;16.40;;;7.28;;
69912;SDS011;57198;52.082;5.108;2024-03-22T14:05:21;11.88;;;7.32;;
69912;SDS011;57198;52.082;5.108;2024-03-22T14:07:50;13.93;;;7.82;;
69912;SDS011;57198;52.082;5.108;2024-03-22T14:10:16;17.52;;;7.80;;
69912;SDS011;57198;52.082;5.108;2024-03-22T14:12:43;13.73;;;7.18;;
69912;SDS011;57198;52.082;5.108;2024-03-22T14:15:10;13.52;;;7.55;;
69912;SDS011;57198;52.082;5.108;2024-03-22T14:17:36;18.30;;;7.78;;
69912;SDS011;57198;52.082;5.108;2024-03-22T14:20:03;17.25;;;7.38;;
69912;SDS011;57198;52.082;5.108;2024-03-22T14:22:35;14.00;;;7.03;;
69912;SDS011;57198;52.082;5.108;2024-03-22T14:25:01;14.88;;;7.35;;